Ackley, IA

11:25 PM CDT on July 24, 2014 (GMT -0500)
Jensen Farm (KIAIOWAF2) Elev 1129 ft | 42.50 °N, 93.20 °W | Change Station

Current weather conditions updated 53 seconds ago

Clear
Clear
63.7 °F
Feels Like 63.7 °F
N
2.0
Wind Variable Wind from ESE
Gusts 6.0 mph

Tomorrow is forecast to be Much Warmer than today. Rain in the morning.

Today
High -- | Low -- °F
--% Chance of Precip.
Yesterday
High -- | Low -- °F
Precip. -- in
5:56 AM 8:40 PM
Waning Crescent, 3% visible
Pressure 29.97 in
Visibility 10.0 miles
Clouds Clear
Dew Point 63 °F
Humidity 98%
Rainfall 0.15 in
Snow Depth Not available.
UV 0 out of 12
Pollen 5.80 out of 12
Air Quality Not available.
Flu Activity Not available.
METAR KIFA 250415Z AUTO 13005KT 10SM CLR 18/16 A2997 RMK AO2 T01760161

More Conditions Fewer Conditions

Pressure 29.97 in
Visibility 10.0 miles
Clouds Clear
Dew Point 63 °F
Humidity 98%
Rainfall 0.15 in
Snow Depth Not available.
UV 0 out of 12
Pollen 5.80 out of 12
Air Quality Not available.
Flu Activity Not available.
METAR KIFA 250415Z AUTO 13005KT 10SM CLR 18/16 A2997 RMK AO2 T01760161

More Conditions Fewer Conditions

10-Day Weather Forecast

Almanac

Astronomy

Jul. 24, 2014 Rise Set
Actual Time 5:56 AM CDT 8:40 PM CDT
Civil Twilight 5:23 AM CDT 9:13 PM CDT
Nautical Twilight 4:42 AM CDT 9:54 PM CDT
Astronomical Twilight 3:54 AM CDT 10:41 PM CDT
Moon 4:05 AM CDT (7/24) 6:55 PM CDT (7/24)
Length of Visible Light 15h 49m
Length of Day
14h 44m
Tomorrow will be 1m 55s shorter.
Waning Crescent, 3% of the Moon is Illuminated
Jul 25
Waning Crescent
Jul 26
New
Aug 3
First Quarter
Aug 10
Full
Aug 17
Last Quarter

Today's Extremes

State Highs State Lows

Community

WunderPhotos

Upload Photos

1,737,242 photos uploaded!

Nearby

Snow Depth

Station Depth Elevation
No new snow has been reported.

Earthquake Activity

City Distance Mag. Time & Date
No recent earthquake activity has been reported nearby.
Minimum magnitude displayed is 2.5.

Coastal Water Temperatures

Place Temperature
No Stations Reporting

Nearby Weather Stations

Station Location Temp. Dew Point Humidity Wind Precip. Elev Updated Type
Jensen Farm, Iowa Falls, IA 63.7 °F 63 °F 98% ESE  at  2.0 mph 0.00 in / hr 1129 ft 11:24 PM CDT Rapid Fire
MesoWest ARGON , Bradford, IA 61 °F - - North  at  - 0.00 in / hr 1198 ft 9:35 PM CDT MADIS
Beeds Addition, Hampton, IA 63.0 °F 63 °F 100% East  at  1.6 mph 0.00 in / hr 1145 ft 11:25 PM CDT Rapid Fire
MesoWest SHEFFI , Chapin, IA 71 °F - - North  at  - 0.00 in / hr 1154 ft 10:05 PM CDT MADIS

Show More Stations Show Fewer Stations